Thunder radar more information blitzortung!


avis per Pluja more information rain snow radar


Visita la nostra xarxa de llocs de meteo:

Template documentation
and downloads

And another site



Rain From: 15-11-2018 14:00 Until: 23:59 warning for: Rain Level: Orange info button

Pagina Historial Weather Underground text

Diari Resum Desembre 15, 2017 Unitats:  Imperial    Mètric   Tant
« Previous Dia
SegĂźent Dia »
Diari Setmana Mensual Anual Personalitzada
  Maxima: Minima: Media:
Temperatura: TemperatureC °F 3.2 °F 10.3 °F
Punt de rosada: DewpointC °F -3.4 °F 0.5 °F
Humitat: Humidity % 41 % 51 %
Wind Speed: WindSpeedKMH mph 0.0 mph 7.8 mph
RĂ fegues de vent: WindSpeedGustKMH mph - -
Vent:- - SW
Pression baro: PressurehPa in 1003.9 in -
Precipitacions: 0.0 in    
Historical Graphs
 
 
Dades de taula per Desembre 15, 2017
Temps Temperatura Punt de rosada Pression baro Vent Wind Speed RĂ fegues de vent Humitat Rainfall Rate (Hourly)
TemperatureC °F DewpointC °F PressurehPa in Calm     Humidity % HourlyPrecipMM in
00:05 8.4 °F 4.6 °F 1005.0 in WSW 1.6 mph 4.8 mph 77 % 0.0 in
00:15 8.7 °F 4.9 °F 1005.0 in WSW 1.6 mph 4.8 mph 77 % 0.0 in
00:25 9.2 °F 5.4 °F 1003.9 in West 3.2 mph 4.8 mph 77 % 0.0 in
00:55 10.3 °F 6.4 °F 1003.9 in West 4.8 mph 6.4 mph 77 % 0.0 in
01:05 10.5 °F 6.6 °F 1003.9 in WSW 4.8 mph 8.0 mph 77 % 0.0 in
01:15 10.6 °F 6.6 °F 1003.9 in West 3.2 mph 4.8 mph 76 % 0.0 in
01:25 10.7 °F 6.4 °F 1005.0 in West 4.8 mph 4.8 mph 75 % 0.0 in
01:35 10.7 °F 6.4 °F 1005.0 in WSW 1.6 mph 4.8 mph 75 % 0.0 in
01:45 10.3 °F 5.9 °F 1005.0 in West 3.2 mph 3.2 mph 74 % 0.0 in
01:55 10.2 °F 5.8 °F 1003.9 in West 4.8 mph 8.0 mph 74 % 0.0 in
02:05 10.2 °F 5.6 °F 1005.0 in West 4.8 mph 4.8 mph 73 % 0.0 in
02:15 10.1 °F 5.5 °F 1005.0 in WSW 8.0 mph 11.3 mph 73 % 0.0 in
02:25 10.1 °F 5.3 °F 1003.9 in WSW 1.6 mph 4.8 mph 72 % 0.0 in
02:35 10.1 °F 5.1 °F 1003.9 in WSW 3.2 mph 8.0 mph 71 % 0.0 in
02:45 10.3 °F 5.1 °F 1003.9 in WSW 4.8 mph 9.7 mph 70 % 0.0 in
02:55 10.6 °F 4.9 °F 1003.9 in WSW 8.0 mph 16.1 mph 68 % 0.0 in
03:05 10.6 °F 4.7 °F 1005.0 in WSW 4.8 mph 6.4 mph 67 % 0.0 in
03:15 10.9 °F 4.8 °F 1005.0 in West 4.8 mph 8.0 mph 66 % 0.0 in
03:25 11.3 °F 4.7 °F 1005.0 in West 4.8 mph 9.7 mph 64 % 0.0 in
03:35 11.7 °F 4.9 °F 1005.0 in West 4.8 mph 4.8 mph 63 % 0.0 in
03:45 11.7 °F 4.7 °F 1005.0 in NW 8.0 mph 16.1 mph 62 % 0.0 in
03:55 12.0 °F 4.2 °F 1003.9 in WNW 8.0 mph 12.9 mph 59 % 0.0 in
04:05 12.2 °F 3.4 °F 1003.9 in West 11.3 mph 24.1 mph 55 % 0.0 in
04:15 12.2 °F 2.9 °F 1003.9 in West 19.3 mph 19.3 mph 53 % 0.0 in
04:25 12.2 °F 2.9 °F 1005.0 in West 19.3 mph 19.3 mph 53 % 0.0 in
04:35 12.3 °F 3.0 °F 1005.0 in WSW 9.7 mph 14.5 mph 53 % 0.0 in
04:45 12.4 °F 2.8 °F 1005.0 in WSW 14.5 mph 16.1 mph 52 % 0.0 in
10:51 12.6 °F 3.0 °F 1006.0 in WNW 13.0 mph 13.0 mph 52 % 0.0 in
10:54 12.6 °F 3.0 °F 1006.0 in WSW 22.2 mph 22.2 mph 52 % 0.0 in
10:59 12.8 °F 3.2 °F 1006.0 in WNW 9.3 mph 9.3 mph 52 % 0.0 in
11:04 13.1 °F 3.4 °F 1006.0 in North 7.9 mph 7.9 mph 52 % 0.0 in
11:09 13.0 °F 3.4 °F 1006.0 in West 9.3 mph 9.3 mph 52 % 0.0 in
11:14 13.1 °F 3.4 °F 1006.0 in North 9.3 mph 9.3 mph 52 % 0.0 in
11:19 13.1 °F 3.4 °F 1006.0 in SW 6.1 mph 6.1 mph 52 % 0.0 in
11:24 13.1 °F 3.4 °F 1006.0 in SW 7.4 mph 7.6 mph 52 % 0.0 in
11:29 13.2 °F 3.6 °F 1006.0 in SSE 9.3 mph 9.3 mph 52 % 0.0 in
11:34 13.3 °F 3.7 °F 1006.0 in SSW 7.4 mph 7.4 mph 52 % 0.0 in
11:39 13.4 °F 3.7 °F 1006.0 in WSW 12.2 mph 12.2 mph 52 % 0.0 in
11:44 13.1 °F 3.4 °F 1007.0 in SW 9.3 mph 9.3 mph 52 % 0.0 in
11:49 13.1 °F 3.4 °F 1007.0 in West 7.4 mph 7.4 mph 52 % 0.0 in
11:54 13.2 °F 3.6 °F 1007.0 in West 9.7 mph 9.7 mph 52 % 0.0 in
11:59 13.0 °F 3.1 °F 1006.0 in NW 44.4 mph 44.4 mph 51 % 0.0 in
12:05 12.9 °F 3.3 °F 1006.0 in NW 7.4 mph 7.4 mph 52 % 0.0 in
12:10 13.1 °F 3.2 °F 1006.0 in WSW 14.8 mph 14.8 mph 51 % 0.0 in
12:15 13.2 °F 3.6 °F 1006.0 in West 12.2 mph 12.2 mph 52 % 0.0 in
12:20 13.1 °F 3.2 °F 1006.0 in WNW 24.1 mph 24.1 mph 51 % 0.0 in
12:25 13.1 °F 3.2 °F 1006.0 in NW 9.3 mph 9.5 mph 51 % 0.0 in
12:30 13.2 °F 3.3 °F 1006.0 in West 17.2 mph 17.2 mph 51 % 0.0 in
12:35 13.1 °F 3.2 °F 1006.0 in NW 9.3 mph 9.3 mph 51 % 0.0 in
12:40 13.3 °F 3.4 °F 1006.0 in WNW 14.8 mph 14.8 mph 51 % 0.0 in
12:45 13.5 °F 3.6 °F 1006.0 in West 9.3 mph 10.0 mph 51 % 0.0 in
12:50 14.0 °F 4.0 °F 1006.0 in West 16.7 mph 16.7 mph 51 % 0.0 in
12:55 14.0 °F 4.0 °F 1006.0 in West 9.5 mph 9.5 mph 51 % 0.0 in
13:00 13.7 °F 3.7 °F 1005.0 in South 5.6 mph 5.8 mph 51 % 0.0 in
13:05 13.5 °F 3.6 °F 1005.0 in East 5.6 mph 5.6 mph 51 % 0.0 in
13:10 13.6 °F 3.7 °F 1005.0 in WNW 9.5 mph 9.5 mph 51 % 0.0 in
13:15 13.8 °F 3.8 °F 1006.0 in SSW 7.4 mph 7.4 mph 51 % 0.0 in
13:20 14.3 °F 4.3 °F 1006.0 in West 16.7 mph 16.7 mph 51 % 0.0 in
13:25 14.1 °F 3.8 °F 1006.0 in WNW 16.7 mph 16.7 mph 50 % 0.0 in
13:30 14.3 °F 4.0 °F 1005.0 in West 13.0 mph 13.0 mph 50 % 0.0 in
13:35 14.1 °F 3.6 °F 1005.0 in WSW 9.7 mph 9.7 mph 49 % 0.0 in
13:40 14.2 °F 3.6 °F 1005.0 in WSW 9.3 mph 9.3 mph 49 % 0.0 in
13:45 14.2 °F 3.6 °F 1005.0 in WSW 7.4 mph 7.4 mph 49 % 0.0 in
13:50 14.1 °F 3.2 °F 1005.0 in WSW 22.2 mph 22.2 mph 48 % 0.0 in
13:55 13.8 °F 2.9 °F 1005.0 in WNW 14.8 mph 14.8 mph 48 % 0.0 in
14:00 13.9 °F 3.1 °F 1005.0 in WSW 10.3 mph 10.3 mph 48 % 0.0 in
14:05 14.2 °F 3.3 °F 1005.0 in SW 9.3 mph 9.3 mph 48 % 0.0 in
14:10 14.0 °F 3.2 °F 1005.0 in WNW 9.3 mph 9.3 mph 48 % 0.0 in
14:15 13.6 °F 2.5 °F 1006.0 in WSW 13.0 mph 13.0 mph 47 % 0.0 in
14:20 13.6 °F 2.5 °F 1006.0 in WSW 7.9 mph 7.9 mph 47 % 0.0 in
14:25 13.5 °F 2.4 °F 1006.0 in WSW 9.3 mph 9.3 mph 47 % 0.0 in
14:30 13.8 °F 2.7 °F 1006.0 in SW 5.6 mph 5.6 mph 47 % 0.0 in
14:35 14.2 °F 3.3 °F 1006.0 in SW 9.3 mph 9.3 mph 48 % 0.0 in
14:40 14.1 °F 2.9 °F 1006.0 in SW 16.7 mph 16.7 mph 47 % 0.0 in
14:45 14.0 °F 2.8 °F 1006.0 in WNW 11.1 mph 11.1 mph 47 % 0.0 in
14:50 14.0 °F 2.8 °F 1006.0 in West 7.4 mph 7.4 mph 47 % 0.0 in
14:55 13.8 °F 2.4 °F 1006.0 in SSW 24.1 mph 24.1 mph 46 % 0.0 in
15:00 14.1 °F 2.7 °F 1006.0 in WNW 9.3 mph 9.3 mph 46 % 0.0 in
15:05 14.1 °F 2.3 °F 1006.0 in WSW 13.0 mph 13.0 mph 45 % 0.0 in
15:10 14.2 °F 2.1 °F 1006.0 in West 9.3 mph 9.5 mph 44 % 0.0 in
15:15 14.2 °F 2.1 °F 1006.0 in West 9.3 mph 9.3 mph 44 % 0.0 in
15:20 14.3 °F 1.9 °F 1006.0 in SW 13.0 mph 13.0 mph 43 % 0.0 in
15:25 14.3 °F 1.9 °F 1006.0 in WSW 16.9 mph 16.9 mph 43 % 0.0 in
15:30 14.2 °F 1.4 °F 1006.0 in WSW 13.0 mph 13.0 mph 42 % 0.0 in
15:35 14.1 °F 1.4 °F 1006.0 in West 13.0 mph 13.0 mph 42 % 0.0 in
15:40 14.0 °F 0.9 °F 1006.0 in West 11.1 mph 11.1 mph 41 % 0.0 in
15:45 14.0 °F 0.9 °F 1006.0 in WNW 7.4 mph 7.4 mph 41 % 0.0 in
15:50 13.9 °F 0.8 °F 1006.0 in West 9.3 mph 9.3 mph 41 % 0.0 in
15:56 13.9 °F 1.2 °F 1006.0 in WNW 6.1 mph 6.4 mph 42 % 0.0 in
16:01 13.6 °F 0.9 °F 1007.0 in WSW 9.3 mph 9.3 mph 42 % 0.0 in
16:06 13.6 °F 0.9 °F 1007.0 in WSW 7.9 mph 7.9 mph 42 % 0.0 in
16:11 13.4 °F 0.7 °F 1007.0 in West 9.3 mph 9.3 mph 42 % 0.0 in
16:16 13.4 °F 0.7 °F 1007.0 in SW 9.3 mph 9.3 mph 42 % 0.0 in
16:21 13.3 °F 0.7 °F 1007.0 in West 11.1 mph 11.1 mph 42 % 0.0 in
16:31 12.9 °F 0.3 °F 1007.0 in SSW 9.3 mph 9.3 mph 42 % 0.0 in
16:36 12.9 °F 0.6 °F 1007.0 in WSW 10.3 mph 10.3 mph 43 % 0.0 in
16:41 12.7 °F 0.4 °F 1007.0 in WSW 3.7 mph 3.7 mph 43 % 0.0 in
16:46 12.8 °F 0.5 °F 1007.0 in SW 5.6 mph 5.6 mph 43 % 0.0 in
16:51 12.7 °F 0.7 °F 1007.0 in WSW 6.4 mph 6.4 mph 44 % 0.0 in
16:56 12.5 °F 0.6 °F 1007.0 in SSW 5.6 mph 5.6 mph 44 % 0.0 in
16:57 12.4 °F 0.4 °F 1007.0 in West 5.0 mph 5.0 mph 44 % 0.0 in
17:02 12.3 °F 0.4 °F 1007.0 in SW 3.2 mph   44 % 0.0 in
17:07 12.0 °F 0.1 °F 1007.0 in West 7.4 mph 7.4 mph 44 % 0.0 in
17:12 11.8 °F -0.1 °F 1008.0 in SW 5.6 mph 5.6 mph 44 % 0.0 in
17:17 11.6 °F -0.3 °F 1008.0 in WSW 11.1 mph 11.1 mph 44 % 0.0 in
17:22 11.5 °F -0.3 °F 1008.0 in SW 5.6 mph 5.6 mph 44 % 0.0 in
17:28 11.3 °F -0.6 °F 1008.0 in SW 9.5 mph 9.5 mph 44 % 0.0 in
17:33 11.2 °F -0.6 °F 1008.0 in West 7.4 mph 7.4 mph 44 % 0.0 in
17:38 11.0 °F -0.8 °F 1008.0 in West 9.3 mph 9.5 mph 44 % 0.0 in
17:43 10.9 °F -0.6 °F 1008.0 in SW 7.4 mph 7.4 mph 45 % 0.0 in
17:48 10.8 °F -0.7 °F 1008.0 in West 7.6 mph 7.6 mph 45 % 0.0 in
17:53 10.7 °F -0.8 °F 1008.0 in WSW 9.3 mph 9.3 mph 45 % 0.0 in
17:58 10.7 °F -0.8 °F 1008.0 in West 7.4 mph 7.4 mph 45 % 0.0 in
18:03 10.7 °F -0.8 °F 1008.0 in West 9.3 mph 9.3 mph 45 % 0.0 in
18:08 10.5 °F -0.9 °F 1008.0 in WSW 3.7 mph 4.2 mph 45 % 0.0 in
18:13 10.2 °F -1.2 °F 1008.0 in SSW 3.7 mph 3.7 mph 45 % 0.0 in
18:15 6.6 °F -2.3 °F 1010.0 in West 3.2 mph 3.2 mph 53 % 0.0 in
18:18 10.0 °F -1.4 °F 1008.0 in WSW 3.7 mph 3.7 mph 45 % 0.0 in
18:23 9.9 °F -1.5 °F 1008.0 in SW 5.6 mph 5.6 mph 45 % 0.0 in
18:25 6.5 °F -2.2 °F 1009.0 in WNW 4.8 mph 4.8 mph 54 % 0.0 in
18:28 9.8 °F -1.6 °F 1008.0 in SSW 5.6 mph 5.6 mph 45 % 0.0 in
18:33 9.7 °F -1.7 °F 1008.0 in WSW 7.4 mph 7.4 mph 45 % 0.0 in
18:35 6.4 °F -2.2 °F 1010.0 in West 1.6 mph 4.8 mph 54 % 0.0 in
18:38 9.6 °F -1.8 °F 1008.0 in SSW 7.4 mph 7.4 mph 45 % 0.0 in
18:43 9.5 °F -1.8 °F 1008.0 in SSW 7.4 mph 7.4 mph 45 % 0.0 in
18:45 6.2 °F -1.9 °F 1010.0 in SSE 4.8 mph 6.4 mph 56 % 0.0 in
18:48 9.5 °F -1.8 °F 1008.0 in WSW 9.3 mph 9.3 mph 45 % 0.0 in
18:53 9.4 °F -1.9 °F 1008.0 in WSW 5.6 mph 5.6 mph 45 % 0.0 in
18:58 9.4 °F -1.9 °F 1008.0 in WSW 5.6 mph 5.6 mph 45 % 0.0 in
19:03 9.5 °F -1.8 °F 1008.0 in West 9.5 mph 9.5 mph 45 % 0.0 in
19:05 6.0 °F -2.4 °F 1010.0 in SW 1.6 mph 4.8 mph 55 % 0.0 in
19:08 9.5 °F -1.8 °F 1008.0 in WSW 11.1 mph 11.1 mph 45 % 0.0 in
19:13 9.5 °F -1.8 °F 1008.0 in WSW 5.6 mph 5.6 mph 45 % 0.0 in
19:15 5.8 °F -2.3 °F 1010.0 in WSW 1.6 mph 3.2 mph 56 % 0.0 in
19:18 9.4 °F -1.9 °F 1008.0 in WSW 6.4 mph 6.4 mph 45 % 0.0 in
19:23 9.4 °F -1.9 °F 1008.0 in WSW 9.3 mph 9.3 mph 45 % 0.0 in
19:25 5.7 °F -2.4 °F 1010.0 in SSW 1.6 mph 3.2 mph 56 % 0.0 in
19:28 9.5 °F -1.8 °F 1008.0 in WSW 13.0 mph 13.0 mph 45 % 0.0 in
19:33 9.4 °F -1.9 °F 1008.0 in West 9.3 mph 9.3 mph 45 % 0.0 in
19:35 5.6 °F -2.5 °F 1010.0 in WSW 3.2 mph 4.8 mph 56 % 0.0 in
19:38 9.4 °F -1.9 °F 1008.0 in WSW 11.1 mph 11.1 mph 45 % 0.0 in
19:43 9.3 °F -2.1 °F 1008.0 in West 7.4 mph 7.4 mph 45 % 0.0 in
19:45 6.0 °F -2.1 °F 1010.0 in Calm   4.8 mph 56 % 0.0 in
19:48 9.3 °F -2.1 °F 1008.0 in WSW 9.3 mph 9.3 mph 45 % 0.0 in
19:53 9.2 °F -2.1 °F 1008.0 in WSW 11.1 mph 11.1 mph 45 % 0.0 in
19:55 5.8 °F -2.3 °F 1009.0 in West 3.2 mph 3.2 mph 56 % 0.0 in
19:58 9.2 °F -2.1 °F 1008.0 in WSW 7.4 mph 7.4 mph 45 % 0.0 in
20:03 9.1 °F -2.2 °F 1008.0 in WNW 9.3 mph 10.0 mph 45 % 0.0 in
20:05 5.8 °F -2.3 °F 1010.0 in West 1.6 mph 4.8 mph 56 % 0.0 in
20:08 9.1 °F -2.2 °F 1008.0 in NNE 13.0 mph 13.0 mph 45 % 0.0 in
20:13 9.0 °F -2.0 °F 1009.0 in WSW 9.3 mph 9.3 mph 46 % 0.0 in
20:15 5.7 °F -2.4 °F 1010.0 in NNW 3.2 mph 4.8 mph 56 % 0.0 in
20:18 8.9 °F -2.1 °F 1009.0 in WSW 5.6 mph 5.6 mph 46 % 0.0 in
20:24 8.8 °F -2.2 °F 1009.0 in WNW 7.4 mph 7.4 mph 46 % 0.0 in
20:25 5.8 °F -2.3 °F 1009.0 in NE 1.6 mph 8.0 mph 56 % 0.0 in
20:29 8.7 °F -2.3 °F 1009.0 in WNW 7.9 mph 7.9 mph 46 % 0.0 in
20:34 8.7 °F -2.3 °F 1009.0 in SSW 3.7 mph 3.7 mph 46 % 0.0 in
20:35 8.6 °F -2.4 °F 1009.0 in WSW 6.1 mph 6.1 mph 46 % 0.0 in
20:40 8.5 °F -2.5 °F 1009.0 in SW 9.3 mph 9.3 mph 46 % 0.0 in
20:45 8.4 °F -2.6 °F 1008.0 in WSW 7.4 mph 7.4 mph 46 % 0.0 in
20:50 8.3 °F -2.7 °F 1008.0 in ENE 5.6 mph 5.6 mph 46 % 0.0 in
20:55 8.2 °F -2.4 °F 1008.0 in ESE 9.5 mph 9.5 mph 47 % 0.0 in
21:00 8.2 °F -2.4 °F 1008.0 in ESE 7.4 mph 7.4 mph 47 % 0.0 in
21:05 8.2 °F -2.4 °F 1008.0 in ENE 6.1 mph 6.1 mph 47 % 0.0 in
21:10 8.0 °F -2.7 °F 1008.0 in NE 3.7 mph 3.7 mph 47 % 0.0 in
21:15 8.2 °F -2.4 °F 1009.0 in ESE 9.3 mph 9.3 mph 47 % 0.0 in
21:20 8.0 °F -2.7 °F 1009.0 in Calm     47 % 0.0 in
21:22 8.0 °F -2.7 °F 1009.0 in East 5.0 mph 5.0 mph 47 % 0.0 in
21:27 8.0 °F -2.7 °F 1009.0 in WNW 3.7 mph 3.7 mph 47 % 0.0 in
21:32 7.8 °F -2.8 °F 1009.0 in NW 4.7 mph 4.7 mph 47 % 0.0 in
21:35 4.8 °F -2.8 °F 1010.7 in NNE 8.0 mph 9.7 mph 58 % 0.0 in
21:37 7.8 °F -2.6 °F 1009.0 in WSW 3.7 mph 3.7 mph 48 % 0.0 in
21:42 7.8 °F -2.6 °F 1009.0 in NW 3.7 mph 3.7 mph 48 % 0.0 in
21:45 4.7 °F -2.9 °F 1010.7 in NE 3.2 mph 8.0 mph 58 % 0.0 in
21:47 7.8 °F -2.6 °F 1009.0 in ENE 5.6 mph 5.6 mph 48 % 0.0 in
21:52 7.7 °F -2.3 °F 1009.0 in ENE 2.3 mph 2.3 mph 49 % 0.0 in
21:57 7.7 °F -2.3 °F 1010.0 in WNW 3.7 mph   49 % 0.0 in
22:02 7.8 °F -2.3 °F 1010.0 in NW 5.6 mph 5.6 mph 49 % 0.0 in
22:05 4.3 °F -3.0 °F 1011.7 in WNW 1.6 mph 4.8 mph 59 % 0.0 in
22:07 7.8 °F -2.3 °F 1010.0 in WSW 2.3 mph 2.3 mph 49 % 0.0 in
22:12 7.5 °F -2.6 °F 1009.0 in WSW 5.6 mph 5.6 mph 49 % 0.0 in
22:17 7.4 °F -2.6 °F 1009.0 in WSW 5.6 mph 5.6 mph 49 % 0.0 in
22:27 7.3 °F -2.4 °F 1010.0 in West 7.4 mph 7.4 mph 50 % 0.0 in
22:37 7.4 °F -2.3 °F 1010.0 in WSW 10.0 mph 10.0 mph 50 % 0.0 in
22:42 7.5 °F -2.0 °F 1009.0 in WSW 9.3 mph 9.3 mph 51 % 0.0 in
22:45 4.0 °F -2.8 °F 1011.7 in Calm   4.8 mph 61 % 0.0 in
22:47 7.5 °F -2.0 °F 1009.0 in NE 7.4 mph 7.4 mph 51 % 0.0 in
22:52 7.5 °F -2.0 °F 1009.0 in West 7.4 mph 7.4 mph 51 % 0.0 in
22:55 3.8 °F -3.3 °F 1011.7 in West 1.6 mph 3.2 mph 60 % 0.0 in
23:02 7.3 °F -2.2 °F 1009.0 in ENE 4.2 mph 4.2 mph 51 % 0.0 in
23:05 3.7 °F -3.1 °F 1011.7 in WNW 1.6 mph 3.2 mph 61 % 0.0 in
23:07 7.2 °F -2.3 °F 1009.0 in NNE 5.6 mph 5.6 mph 51 % 0.0 in
23:12 7.1 °F -2.4 °F 1009.0 in East 3.7 mph 3.9 mph 51 % 0.0 in
23:13 7.1 °F -2.1 °F 1009.0 in East 3.7 mph 3.7 mph 52 % 0.0 in
23:18 7.1 °F -2.4 °F 1009.0 in West 3.7 mph 3.7 mph 51 % 0.0 in
23:23 6.9 °F -2.6 °F 1009.0 in WNW 3.7 mph 3.7 mph 51 % 0.0 in
23:25 3.8 °F -3.1 °F 1011.7 in NNE 1.6 mph 4.8 mph 61 % 0.0 in
23:28 6.9 °F -2.6 °F 1010.0 in WSW 5.6 mph 5.8 mph 51 % 0.0 in
23:33 7.0 °F -2.2 °F 1010.0 in WSW 7.4 mph 7.4 mph 52 % 0.0 in
23:34 7.0 °F -2.2 °F 1010.0 in WSW 7.4 mph 7.4 mph 52 % 0.0 in
23:35 3.8 °F -2.8 °F 1011.7 in NNE 1.6 mph 3.2 mph 62 % 0.0 in
23:38 7.0 °F -2.2 °F 1010.0 in WSW 9.3 mph 9.3 mph 52 % 0.0 in
23:43 7.0 °F -2.2 °F 1010.0 in West 7.4 mph 7.4 mph 52 % 0.0 in
23:45 3.5 °F -3.1 °F 1011.7 in WNW 1.6 mph 3.2 mph 62 % 0.0 in
23:48 7.0 °F -2.2 °F 1010.0 in WSW 11.1 mph 11.1 mph 52 % 0.0 in
23:49 6.9 °F -2.3 °F 1010.0 in West 9.3 mph 9.3 mph 52 % 0.0 in
23:54 6.9 °F -2.1 °F 1010.0 in West 11.1 mph 11.1 mph 53 % 0.0 in
23:55 3.2 °F -3.4 °F 1011.7 in Calm   3.2 mph 62 % 0.0 in
23:59 6.8 °F -2.1 °F 1010.0 in WSW 7.4 mph 7.4 mph 53 % 0.0 in
Meteo Sesrovires
Elogis d' Weather Underground - 1.5 mb

Guio original per  Jim McMurry - jmcmurry@mwt.net Adaptat per a la plantilla per  Wim van der Kuil - Leuven-Template.eu

Trobareu la nostra informacio del temps tambe a:

Weather Underground

AWEKAS